createdAt,value
2019-05-29T00:01:04.440Z,2.37
2019-05-29T00:02:10.083Z,2.60
2019-05-29T00:03:36.168Z,2.47
2019-05-29T00:05:00.556Z,2.55
2019-05-29T00:06:06.265Z,3.20
2019-05-29T00:07:51.361Z,3.37
2019-05-29T00:08:56.916Z,2.85
2019-05-29T00:11:26.814Z,3.10
2019-05-29T00:12:32.030Z,3.10
2019-05-29T00:13:37.545Z,3.00
2019-05-29T00:14:42.493Z,2.90
2019-05-29T00:15:48.003Z,3.67
2019-05-29T00:18:35.985Z,3.10
2019-05-29T00:19:40.965Z,3.05
2019-05-29T00:20:46.885Z,3.30
2019-05-29T00:27:15.706Z,2.80
2019-05-29T00:28:21.811Z,3.17
2019-05-29T00:32:15.435Z,3.35
2019-05-29T00:33:21.238Z,2.98
2019-05-29T00:34:26.192Z,3.47
2019-05-29T00:35:50.186Z,3.55
2019-05-29T00:37:14.702Z,3.00
2019-05-29T00:38:20.205Z,3.30
2019-05-29T00:39:25.166Z,3.45
2019-05-29T00:40:49.233Z,3.35
2019-05-29T00:41:55.788Z,3.00
2019-05-29T00:43:01.619Z,3.33
2019-05-29T00:44:33.919Z,3.10
2019-05-29T00:46:11.392Z,3.00
2019-05-29T00:49:45.371Z,3.10
2019-05-29T00:51:10.945Z,3.40
2019-05-29T00:54:20.619Z,3.85
2019-05-29T00:55:45.342Z,3.33
2019-05-29T00:56:50.313Z,3.40
2019-05-29T00:58:15.027Z,3.40
2019-05-29T00:59:20.420Z,3.58
2019-05-29T01:00:45.141Z,2.98
2019-05-29T01:06:28.153Z,3.52
2019-05-29T01:07:33.117Z,3.15
2019-05-29T01:08:38.612Z,3.45
2019-05-29T01:10:02.770Z,3.47
2019-05-29T01:11:26.755Z,3.35
2019-05-29T01:14:15.173Z,3.20
2019-05-29T01:17:24.534Z,3.40
2019-05-29T01:18:48.572Z,4.30
2019-05-29T01:20:13.947Z,3.30
2019-05-29T01:23:42.710Z,3.65
2019-05-29T01:25:07.546Z,3.00
2019-05-29T01:26:12.767Z,4.20
2019-05-29T01:27:18.821Z,3.30
2019-05-29T01:28:44.403Z,3.15
2019-05-29T01:29:49.920Z,3.20
2019-05-29T01:31:15.118Z,3.58
2019-05-29T01:32:40.952Z,4.05
2019-05-29T01:33:47.361Z,3.75
2019-05-29T01:34:52.919Z,3.98
2019-05-29T01:35:57.832Z,3.55
2019-05-29T01:37:22.353Z,3.33
2019-05-29T01:38:46.455Z,3.12
2019-05-29T01:39:51.974Z,3.42
2019-05-29T01:40:56.885Z,3.52
2019-05-29T01:42:02.403Z,3.62
2019-05-29T01:44:30.597Z,3.35
2019-05-29T01:46:59.796Z,4.05
2019-05-29T01:48:23.946Z,3.58
2019-05-29T01:49:48.707Z,3.58
2019-05-29T01:50:53.944Z,2.70
2019-05-29T01:52:19.676Z,3.40
2019-05-29T01:53:45.340Z,3.37
2019-05-29T01:54:50.902Z,3.35
2019-05-29T01:56:15.586Z,4.40
2019-05-29T01:57:39.693Z,3.10
2019-05-29T01:59:04.409Z,3.08
2019-05-29T02:00:49.031Z,3.60
2019-05-29T02:03:40.618Z,3.30
2019-05-29T02:04:46.190Z,3.55
2019-05-29T02:06:10.315Z,3.85
2019-05-29T02:07:34.318Z,3.15
2019-05-29T02:08:58.458Z,3.75
2019-05-29T02:11:47.944Z,3.25
2019-05-29T02:14:18.461Z,3.52
2019-05-29T02:16:02.908Z,3.80
2019-05-29T02:17:27.995Z,3.12
2019-05-29T02:20:23.620Z,3.67
2019-05-29T02:21:47.940Z,3.70
2019-05-29T02:23:12.003Z,3.95
2019-05-29T02:26:00.153Z,3.98
2019-05-29T02:27:25.579Z,3.65
2019-05-29T02:28:50.884Z,3.52
2019-05-29T02:29:56.381Z,3.08
2019-05-29T02:31:01.363Z,3.20
2019-05-29T02:32:25.696Z,4.37
2019-05-29T02:33:30.583Z,3.80
2019-05-29T02:34:36.216Z,3.52
2019-05-29T02:37:26.113Z,3.90
2019-05-29T02:39:09.937Z,4.08
2019-05-29T02:40:34.664Z,4.08
2019-05-29T02:41:58.247Z,4.10
2019-05-29T02:43:03.176Z,4.15
2019-05-29T02:44:27.676Z,4.47
2019-05-29T02:45:55.009Z,3.95
2019-05-29T02:50:33.495Z,4.17
2019-05-29T02:52:18.093Z,4.70
2019-05-29T02:53:42.534Z,3.80
2019-05-29T02:55:07.266Z,3.85
2019-05-29T02:56:31.388Z,4.42
2019-05-29T02:57:55.353Z,4.83
2019-05-29T02:59:21.088Z,4.62
2019-05-29T03:02:54.227Z,4.08
2019-05-29T03:04:18.383Z,4.17
2019-05-29T03:05:24.036Z,4.37
2019-05-29T03:06:48.173Z,4.70
2019-05-29T03:08:34.378Z,4.30
2019-05-29T03:10:18.042Z,4.78
2019-05-29T03:11:42.768Z,4.35
2019-05-29T03:13:06.886Z,4.90
2019-05-29T03:14:31.793Z,4.53
2019-05-29T03:16:09.557Z,5.17
2019-05-29T03:17:23.805Z,3.90
2019-05-29T03:20:34.433Z,4.83
2019-05-29T03:23:24.254Z,4.60
2019-05-29T03:24:50.083Z,4.95
2019-05-29T03:25:55.071Z,4.17
2019-05-29T03:27:00.585Z,4.75
2019-05-29T03:31:41.926Z,5.60
2019-05-29T03:32:59.568Z,4.47
2019-05-29T03:36:37.524Z,4.80
2019-05-29T03:38:14.510Z,4.78
2019-05-29T03:39:19.490Z,4.35
2019-05-29T03:40:26.518Z,4.40
2019-05-29T03:42:10.301Z,5.10
2019-05-29T03:44:40.115Z,4.70
2019-05-29T03:45:45.616Z,4.75
2019-05-29T03:46:50.542Z,5.72
2019-05-29T03:47:56.117Z,5.90
2019-05-29T03:49:01.078Z,5.40
2019-05-29T03:52:15.722Z,5.55
2019-05-29T03:53:21.257Z,5.53
2019-05-29T03:54:27.050Z,5.45
2019-05-29T03:55:52.880Z,4.67
2019-05-29T03:56:57.847Z,4.78
2019-05-29T03:58:03.653Z,5.30
2019-05-29T03:59:08.613Z,5.30
2019-05-29T04:00:53.487Z,4.47
2019-05-29T04:02:17.614Z,6.00
2019-05-29T04:03:23.175Z,4.97
2019-05-29T04:04:29.035Z,5.55
2019-05-29T04:05:55.097Z,4.78
2019-05-29T04:07:00.295Z,4.72
2019-05-29T04:09:31.294Z,5.60
2019-05-29T04:11:15.464Z,5.45
2019-05-29T04:12:40.221Z,5.65
2019-05-29T04:13:45.274Z,5.30
2019-05-29T04:15:31.504Z,5.80
2019-05-29T04:17:35.625Z,5.35
2019-05-29T04:19:20.300Z,4.78
2019-05-29T04:20:27.512Z,5.45
2019-05-29T04:22:34.250Z,5.90
2019-05-29T04:24:38.586Z,5.20
2019-05-29T04:26:23.174Z,14.05
2019-05-29T04:28:07.848Z,5.53
2019-05-29T04:29:52.435Z,5.30
2019-05-29T04:34:25.313Z,4.78
2019-05-29T04:35:30.567Z,5.53
2019-05-29T04:36:36.916Z,5.92
2019-05-29T04:38:02.555Z,7.53
2019-05-29T04:39:47.132Z,6.22
2019-05-29T04:40:52.045Z,5.37
2019-05-29T04:42:16.053Z,4.70
2019-05-29T04:43:20.984Z,4.83
2019-05-29T04:44:44.980Z,5.67
2019-05-29T04:46:09.374Z,4.87
2019-05-29T04:47:14.920Z,4.95
2019-05-29T04:48:40.467Z,5.33
2019-05-29T04:50:45.014Z,4.92
2019-05-29T04:52:09.167Z,5.60
2019-05-29T04:53:33.638Z,5.30
2019-05-29T04:54:59.486Z,5.42
2019-05-29T04:56:24.177Z,5.42
2019-05-29T04:57:29.322Z,5.65
2019-05-29T04:58:55.788Z,6.25
2019-05-29T05:00:00.830Z,6.25
2019-05-29T05:02:31.101Z,5.08
2019-05-29T05:03:57.455Z,5.67
2019-05-29T05:05:02.560Z,5.80
2019-05-29T05:06:08.161Z,5.75
2019-05-29T05:07:33.193Z,6.22
2019-05-29T05:10:42.397Z,5.62
2019-05-29T05:11:48.081Z,6.15
2019-05-29T05:13:12.290Z,6.42
2019-05-29T05:14:37.803Z,6.62
2019-05-29T05:18:06.680Z,5.95
2019-05-29T05:20:36.463Z,5.50
2019-05-29T05:23:26.906Z,5.90
2019-05-29T05:24:51.088Z,5.65
2019-05-29T05:26:15.108Z,5.58
2019-05-29T05:27:21.783Z,5.87
2019-05-29T05:28:27.427Z,6.15
2019-05-29T05:29:51.575Z,6.65
2019-05-29T05:30:57.278Z,5.40
2019-05-29T05:32:02.449Z,6.10
2019-05-29T05:33:27.143Z,5.95
2019-05-29T05:34:32.665Z,5.00
2019-05-29T05:37:02.766Z,5.60
2019-05-29T05:38:27.071Z,5.65
2019-05-29T05:39:51.301Z,5.67
2019-05-29T05:41:16.071Z,5.70
2019-05-29T05:42:21.036Z,5.25
2019-05-29T05:43:45.044Z,5.10
2019-05-29T05:44:50.017Z,5.30
2019-05-29T05:45:55.607Z,5.67
2019-05-29T05:47:00.682Z,5.08
2019-05-29T05:48:06.628Z,6.58
2019-05-29T05:49:31.298Z,5.65
2019-05-29T05:51:16.171Z,5.65
2019-05-29T05:52:41.641Z,5.40
2019-05-29T05:54:07.454Z,5.40
2019-05-29T05:55:52.049Z,5.50
2019-05-29T05:57:16.460Z,4.75
2019-05-29T05:58:21.984Z,4.60
2019-05-29T05:59:46.122Z,4.90
2019-05-29T06:01:31.729Z,4.97
2019-05-29T06:02:56.817Z,4.35
2019-05-29T06:04:02.346Z,4.87
2019-05-29T06:05:46.977Z,4.87
2019-05-29T06:07:32.291Z,4.80
2019-05-29T06:10:01.781Z,4.20
2019-05-29T06:11:25.914Z,4.20
2019-05-29T06:12:32.260Z,4.12
2019-05-29T06:14:16.791Z,4.08
2019-05-29T06:15:42.835Z,4.35
2019-05-29T06:17:26.987Z,3.80
2019-05-29T06:20:56.384Z,4.75
2019-05-29T06:22:01.455Z,3.90
2019-05-29T06:23:25.808Z,4.67
2019-05-29T06:24:31.196Z,4.45
2019-05-29T06:25:38.628Z,4.33
2019-05-29T06:27:22.067Z,4.15
2019-05-29T06:28:27.904Z,4.72
2019-05-29T06:29:52.040Z,4.30
2019-05-29T06:30:57.636Z,4.50
2019-05-29T06:32:02.981Z,3.87
2019-05-29T06:33:27.789Z,3.92
2019-05-29T06:34:33.512Z,4.50
2019-05-29T06:37:43.779Z,4.00
2019-05-29T06:39:09.278Z,4.12
2019-05-29T06:40:53.898Z,3.65
2019-05-29T06:42:18.127Z,3.67
2019-05-29T06:44:03.244Z,4.00
2019-05-29T06:45:47.843Z,3.90
2019-05-29T06:47:31.364Z,3.75
2019-05-29T06:48:49.322Z,4.28
2019-05-29T06:50:03.147Z,3.70
2019-05-29T06:51:27.144Z,3.60
2019-05-29T06:52:51.637Z,4.00
2019-05-29T06:56:01.865Z,3.25
2019-05-29T06:57:45.622Z,3.72
2019-05-29T06:58:50.746Z,3.58
2019-05-29T06:59:56.474Z,3.40
2019-05-29T07:01:20.536Z,4.80
2019-05-29T07:02:44.951Z,3.58
2019-05-29T07:03:49.957Z,3.40
2019-05-29T07:06:38.636Z,3.27
2019-05-29T07:07:44.510Z,3.62
2019-05-29T07:09:10.429Z,2.55
2019-05-29T07:10:55.066Z,2.35
2019-05-29T07:12:19.461Z,2.90
2019-05-29T07:13:25.268Z,2.60
2019-05-29T07:14:30.263Z,2.65
2019-05-29T07:15:54.964Z,2.80
2019-05-29T07:16:59.958Z,3.60
2019-05-29T07:19:18.361Z,2.40
2019-05-29T07:20:50.317Z,2.20
2019-05-29T07:21:55.254Z,2.37
2019-05-29T07:23:01.255Z,2.35
2019-05-29T07:24:06.328Z,2.58
2019-05-29T07:25:31.046Z,2.40
2019-05-29T07:28:00.852Z,2.15
2019-05-29T07:29:08.485Z,2.62
2019-05-29T07:31:01.168Z,2.47
2019-05-29T07:32:18.263Z,2.10
2019-05-29T07:35:01.636Z,2.40
2019-05-29T07:36:14.365Z,2.33
2019-05-29T07:37:39.536Z,2.15
2019-05-29T07:39:44.038Z,2.45
2019-05-29T07:40:50.127Z,2.10
2019-05-29T07:42:15.686Z,2.10
2019-05-29T07:43:20.602Z,3.90
2019-05-29T07:44:26.182Z,2.10
2019-05-29T07:45:50.258Z,2.75
2019-05-29T07:46:55.656Z,2.90
2019-05-29T07:49:38.587Z,2.70
2019-05-29T07:51:10.523Z,2.58
2019-05-29T07:52:24.110Z,2.98
2019-05-29T07:53:48.828Z,2.65
2019-05-29T07:55:54.179Z,2.60
2019-05-29T07:57:18.474Z,2.47
2019-05-29T07:58:23.751Z,2.42
2019-05-29T08:01:11.547Z,2.10
2019-05-29T08:02:45.355Z,2.40
2019-05-29T08:04:11.569Z,2.10
2019-05-29T08:05:56.174Z,2.10
2019-05-29T08:07:20.319Z,1.95
2019-05-29T08:08:25.834Z,2.27
2019-05-29T08:09:50.007Z,2.02
2019-05-29T08:11:14.736Z,2.00
2019-05-29T08:14:02.918Z,2.30
2019-05-29T08:15:57.574Z,2.20
2019-05-29T08:17:32.889Z,1.90
2019-05-29T08:20:20.858Z,1.90
2019-05-29T08:21:44.877Z,2.00
2019-05-29T08:22:50.547Z,2.60
2019-05-29T08:24:16.494Z,2.33
2019-05-29T08:25:21.563Z,2.20
2019-05-29T08:26:27.102Z,2.60
2019-05-29T08:27:32.074Z,2.50
2019-05-29T08:28:38.107Z,2.10
2019-05-29T08:30:02.630Z,2.17
2019-05-29T08:31:27.595Z,1.70
2019-05-29T08:32:32.715Z,1.92
2019-05-29T08:33:57.477Z,1.72
2019-05-29T08:35:21.779Z,1.90
2019-05-29T08:37:01.135Z,2.33
2019-05-29T08:38:30.988Z,2.52
2019-05-29T08:39:37.183Z,2.33
2019-05-29T08:41:05.802Z,2.80
2019-05-29T08:42:29.655Z,2.22
2019-05-29T08:43:34.695Z,2.83
2019-05-29T08:49:25.064Z,2.05
2019-05-29T08:50:30.017Z,2.17
2019-05-29T08:51:35.586Z,2.47
2019-05-29T08:52:41.697Z,2.85
2019-05-29T08:54:23.014Z,2.00
2019-05-29T08:55:52.747Z,2.20
2019-05-29T08:58:44.317Z,2.10
2019-05-29T09:00:53.207Z,2.30
2019-05-29T09:02:15.409Z,2.35
2019-05-29T09:03:40.106Z,2.87
2019-05-29T09:05:04.336Z,2.10
2019-05-29T09:06:13.491Z,2.35
2019-05-29T09:07:55.327Z,2.45
2019-05-29T09:09:00.270Z,2.30
2019-05-29T09:11:56.703Z,2.10
2019-05-29T09:13:05.090Z,2.50
2019-05-29T09:14:47.472Z,2.70
2019-05-29T09:15:53.159Z,2.40
2019-05-29T09:17:18.406Z,2.10
2019-05-29T09:21:01.694Z,2.12
2019-05-29T09:22:13.855Z,2.70
2019-05-29T09:23:39.417Z,2.05
2019-05-29T09:24:44.394Z,2.05
2019-05-29T09:26:15.686Z,2.30
2019-05-29T09:27:35.129Z,2.15
2019-05-29T09:30:44.398Z,2.27
2019-05-29T09:33:53.063Z,2.37
2019-05-29T09:35:18.455Z,2.33
2019-05-29T09:36:43.860Z,2.15
2019-05-29T09:38:07.988Z,2.05
2019-05-29T09:39:14.967Z,2.00
2019-05-29T09:40:58.815Z,2.12
2019-05-29T09:42:23.725Z,2.45
2019-05-29T09:43:58.852Z,2.75
2019-05-29T09:45:16.629Z,2.20
2019-05-29T09:47:01.347Z,2.08
2019-05-29T09:48:28.326Z,2.40
2019-05-29T09:49:52.176Z,3.00
2019-05-29T09:50:57.711Z,2.25
2019-05-29T09:52:04.062Z,2.47
2019-05-29T09:53:48.153Z,2.60
2019-05-29T09:54:54.627Z,2.15
2019-05-29T09:56:19.737Z,2.60
2019-05-29T09:57:43.908Z,2.98
2019-05-29T09:58:49.409Z,2.90
2019-05-29T10:00:13.668Z,2.50
2019-05-29T10:01:38.886Z,2.02
2019-05-29T10:03:44.135Z,3.42
2019-05-29T10:05:49.730Z,2.30
2019-05-29T10:06:55.969Z,2.35
2019-05-29T10:08:39.965Z,2.10
2019-05-29T10:09:44.918Z,2.52
2019-05-29T10:11:10.978Z,2.90
2019-05-29T10:12:55.360Z,2.65
2019-05-29T10:14:21.123Z,2.70
2019-05-29T10:15:26.439Z,3.02
2019-05-29T10:16:32.017Z,2.02
2019-05-29T10:17:56.995Z,2.40
2019-05-29T10:19:22.110Z,2.72
2019-05-29T10:21:06.964Z,2.55
2019-05-29T10:22:31.012Z,3.15
2019-05-29T10:23:35.997Z,3.10
2019-05-29T10:24:41.615Z,2.25
2019-05-29T10:26:06.545Z,2.10
2019-05-29T10:29:21.475Z,2.30
2019-05-29T10:31:06.229Z,2.67
2019-05-29T10:32:32.230Z,3.77
2019-05-29T10:33:56.939Z,2.25
2019-05-29T10:35:02.249Z,2.25
2019-05-29T10:36:49.997Z,2.02
2019-05-29T10:38:12.925Z,2.02
2019-05-29T10:39:18.561Z,2.55
2019-05-29T10:40:23.707Z,2.27
2019-05-29T10:41:29.209Z,2.42
2019-05-29T10:42:53.667Z,2.83
2019-05-29T10:44:17.690Z,2.85
2019-05-29T10:46:02.283Z,2.58
2019-05-29T10:47:26.705Z,2.12
2019-05-29T10:48:32.288Z,2.65
2019-05-29T10:49:37.396Z,2.12
2019-05-29T10:51:02.170Z,2.60
2019-05-29T10:52:26.196Z,2.17
2019-05-29T10:53:31.205Z,2.67
2019-05-29T10:54:39.206Z,2.72
2019-05-29T10:56:03.358Z,2.55
2019-05-29T10:57:28.106Z,2.22
2019-05-29T10:58:58.967Z,2.47
2019-05-29T11:00:57.977Z,2.55
2019-05-29T11:02:03.378Z,2.20
2019-05-29T11:03:28.348Z,2.10
2019-05-29T11:04:33.725Z,2.10
2019-05-29T11:05:39.593Z,2.00
2019-05-29T11:06:46.087Z,2.95
2019-05-29T11:08:29.904Z,2.30
2019-05-29T11:09:44.639Z,2.33
2019-05-29T11:11:01.674Z,2.40
2019-05-29T11:12:46.487Z,2.02
2019-05-29T11:13:52.749Z,2.15
2019-05-29T11:17:21.281Z,2.70
2019-05-29T11:18:47.407Z,2.20
2019-05-29T11:24:10.530Z,1.90
2019-05-29T11:27:45.648Z,2.30
2019-05-29T11:30:55.593Z,2.35
2019-05-29T11:32:20.628Z,2.72
2019-05-29T11:33:26.172Z,3.20
2019-05-29T11:34:31.138Z,2.15
2019-05-29T11:36:07.327Z,2.17
2019-05-29T11:37:41.348Z,2.60
2019-05-29T11:39:06.281Z,2.17
2019-05-29T11:41:05.203Z,2.27
2019-05-29T11:42:35.824Z,2.10
2019-05-29T11:45:51.109Z,2.27
2019-05-29T11:47:34.907Z,2.00
2019-05-29T11:50:50.589Z,1.95
2019-05-29T11:53:20.381Z,2.30
2019-05-29T11:54:25.334Z,2.12
2019-05-29T11:55:31.138Z,2.42
2019-05-29T11:56:57.432Z,2.20
2019-05-29T11:58:31.122Z,2.10
2019-05-29T12:00:18.923Z,2.50
2019-05-29T12:01:49.745Z,1.62
2019-05-29T12:03:01.796Z,2.17
2019-05-29T12:04:28.376Z,2.08
2019-05-29T12:05:33.608Z,2.25
2019-05-29T12:06:59.492Z,2.20
2019-05-29T12:08:24.711Z,2.20
2019-05-29T12:09:33.446Z,2.50
2019-05-29T12:11:15.513Z,1.92
2019-05-29T12:12:39.513Z,1.65
2019-05-29T12:13:47.047Z,1.62
2019-05-29T12:16:41.606Z,2.20
2019-05-29T12:18:23.170Z,1.50
2019-05-29T12:19:31.954Z,1.82
2019-05-29T12:20:37.635Z,1.70
2019-05-29T12:23:45.149Z,1.80
2019-05-29T12:24:52.388Z,1.90
2019-05-29T12:26:36.045Z,1.95
2019-05-29T12:27:41.001Z,1.50
2019-05-29T12:29:11.451Z,1.30
2019-05-29T12:31:10.959Z,1.75
2019-05-29T12:32:35.154Z,1.65
2019-05-29T12:33:41.054Z,1.70
2019-05-29T12:34:53.461Z,1.47
2019-05-29T12:36:31.288Z,1.45
2019-05-29T12:39:19.553Z,1.60
2019-05-29T12:40:25.257Z,1.50
2019-05-29T12:41:30.210Z,1.50
2019-05-29T12:42:55.636Z,2.15
2019-05-29T12:44:40.114Z,1.90
2019-05-29T12:46:05.023Z,2.65
2019-05-29T12:47:31.664Z,1.35
2019-05-29T12:48:37.178Z,1.50
2019-05-29T12:49:42.648Z,1.52
2019-05-29T12:51:07.395Z,1.62
2019-05-29T12:52:31.520Z,1.30
2019-05-29T12:53:37.058Z,1.35
2019-05-29T12:55:21.644Z,1.30
2019-05-29T12:56:26.591Z,1.60
2019-05-29T12:57:50.843Z,1.82
2019-05-29T12:58:58.368Z,1.67
2019-05-29T13:02:33.680Z,1.90
2019-05-29T13:03:58.635Z,1.65
2019-05-29T13:06:04.459Z,1.95
2019-05-29T13:07:48.699Z,1.67
2019-05-29T13:09:12.816Z,2.27
2019-05-29T13:10:37.957Z,1.90
2019-05-29T13:11:42.910Z,1.55
2019-05-29T13:14:12.594Z,3.17
2019-05-29T13:15:58.660Z,2.22
2019-05-29T13:17:42.817Z,1.70
2019-05-29T13:18:48.418Z,1.98
2019-05-29T13:19:57.612Z,2.98
2019-05-29T13:21:38.941Z,2.58
2019-05-29T13:23:05.451Z,2.37
2019-05-29T13:24:29.794Z,2.20
2019-05-29T13:25:35.461Z,2.70
2019-05-29T13:26:40.466Z,2.25
2019-05-29T13:28:05.912Z,2.52
2019-05-29T13:29:49.499Z,2.20
2019-05-29T13:31:13.522Z,2.25
2019-05-29T13:32:18.457Z,1.95
2019-05-29T13:33:24.172Z,2.20
2019-05-29T13:34:29.194Z,2.50
2019-05-29T13:35:35.061Z,2.42
2019-05-29T13:37:03.427Z,2.90
2019-05-29T13:38:44.678Z,2.83
2019-05-29T13:40:09.719Z,2.83
2019-05-29T13:41:14.660Z,2.37
2019-05-29T13:43:05.333Z,2.98
2019-05-29T13:44:25.948Z,2.72
2019-05-29T13:45:49.968Z,2.10
2019-05-29T13:46:54.898Z,2.52
2019-05-29T13:48:18.900Z,2.15
2019-05-29T13:49:23.982Z,2.45
2019-05-29T13:50:29.477Z,2.50
2019-05-29T13:53:23.668Z,2.72
2019-05-29T13:54:28.652Z,3.60
2019-05-29T13:55:53.366Z,2.50
2019-05-29T13:56:59.597Z,2.72
2019-05-29T13:58:25.030Z,2.55
2019-05-29T13:59:49.359Z,2.67
2019-05-29T14:00:54.992Z,2.10
2019-05-29T14:02:19.273Z,2.40
2019-05-29T14:03:43.765Z,2.40
2019-05-29T14:05:08.807Z,2.65
2019-05-29T14:06:53.776Z,2.60
2019-05-29T14:08:00.633Z,2.27
2019-05-29T14:10:07.765Z,3.10
2019-05-29T14:13:42.991Z,2.92
2019-05-29T14:15:27.801Z,3.10
2019-05-29T14:18:23.985Z,2.35
2019-05-29T14:23:23.201Z,1.92
2019-05-29T14:24:47.290Z,2.08
2019-05-29T14:25:52.447Z,2.50
2019-05-29T14:26:58.098Z,2.22
2019-05-29T14:28:22.193Z,1.90
2019-05-29T14:29:27.232Z,2.12
2019-05-29T14:30:51.970Z,1.70
2019-05-29T14:32:16.112Z,2.10
2019-05-29T14:33:40.147Z,1.75
2019-05-29T14:36:28.613Z,1.80
2019-05-29T14:37:53.896Z,1.60
2019-05-29T14:39:18.056Z,2.00
2019-05-29T14:40:23.641Z,1.90
2019-05-29T14:41:29.108Z,1.80
2019-05-29T14:42:35.045Z,1.90
2019-05-29T14:43:59.171Z,1.95
2019-05-29T14:45:23.390Z,1.60
2019-05-29T14:46:28.966Z,1.50
2019-05-29T14:47:53.203Z,1.67
2019-05-29T14:48:58.774Z,2.08
2019-05-29T14:53:37.492Z,1.50
2019-05-29T14:54:43.133Z,1.35
2019-05-29T14:55:48.107Z,1.75
2019-05-29T14:56:53.960Z,1.67
2019-05-29T14:58:38.753Z,2.15
2019-05-29T14:59:44.323Z,1.92
2019-05-29T15:00:49.999Z,1.65
2019-05-29T15:02:21.618Z,2.10
2019-05-29T15:03:40.896Z,1.50
2019-05-29T15:04:45.820Z,1.80
2019-05-29T15:05:51.859Z,3.00
2019-05-29T15:06:56.845Z,2.08
2019-05-29T15:08:04.131Z,2.20
2019-05-29T15:09:28.273Z,2.22
2019-05-29T15:10:53.103Z,1.98
2019-05-29T15:13:29.041Z,2.67
2019-05-29T15:14:53.155Z,1.90
2019-05-29T15:16:17.205Z,2.35
2019-05-29T15:17:22.611Z,2.08
2019-05-29T15:18:28.848Z,1.90
2019-05-29T15:19:52.921Z,3.70
2019-05-29T15:20:58.554Z,1.80
2019-05-29T15:23:48.174Z,1.72
2019-05-29T15:25:03.231Z,2.95
2019-05-29T15:26:39.094Z,1.90
2019-05-29T15:28:03.203Z,2.70
2019-05-29T15:29:27.485Z,2.75
2019-05-29T15:30:52.327Z,1.85
2019-05-29T15:31:57.538Z,2.00
2019-05-29T15:33:03.098Z,1.85
2019-05-29T15:34:08.231Z,1.90
2019-05-29T15:37:18.866Z,2.05
2019-05-29T15:39:03.035Z,1.80
2019-05-29T15:40:47.982Z,1.82
2019-05-29T15:41:53.088Z,1.90
2019-05-29T15:43:17.454Z,2.02
2019-05-29T15:44:41.688Z,1.80
2019-05-29T15:45:47.358Z,2.08
2019-05-29T15:47:12.922Z,2.77
2019-05-29T15:51:02.379Z,1.62
2019-05-29T15:53:57.693Z,2.15
2019-05-29T15:55:32.117Z,1.98
2019-05-29T15:58:37.265Z,1.60
2019-05-29T16:00:02.494Z,1.72
2019-05-29T16:01:07.757Z,1.67
2019-05-29T16:02:13.745Z,2.85
2019-05-29T16:08:37.829Z,1.62
2019-05-29T16:10:01.993Z,1.82
2019-05-29T16:11:08.579Z,1.90
2019-05-29T16:12:53.298Z,1.92
2019-05-29T16:16:02.011Z,2.02
2019-05-29T16:17:26.209Z,1.80
2019-05-29T16:18:31.778Z,2.10
2019-05-29T16:19:36.753Z,2.12
2019-05-29T16:21:01.893Z,1.80
2019-05-29T16:22:06.973Z,2.08
2019-05-29T16:23:13.959Z,1.90
2019-05-29T16:28:24.096Z,2.05
2019-05-29T16:29:49.009Z,2.12
2019-05-29T16:31:13.006Z,1.62
2019-05-29T16:32:18.029Z,3.08
2019-05-29T16:33:42.129Z,3.02
2019-05-29T16:34:47.268Z,2.30
2019-05-29T16:35:52.925Z,2.37
2019-05-29T16:36:57.939Z,2.10
2019-05-29T16:38:03.491Z,1.90
2019-05-29T16:39:27.898Z,1.75
2019-05-29T16:40:52.961Z,2.30
2019-05-29T16:41:57.974Z,2.20
2019-05-29T16:43:23.118Z,1.98
2019-05-29T16:46:15.442Z,2.00
2019-05-29T16:47:56.411Z,3.27
2019-05-29T16:49:01.658Z,2.10
2019-05-29T16:51:51.395Z,2.02
2019-05-29T16:53:16.772Z,1.87
2019-05-29T16:55:01.652Z,1.77
2019-05-29T16:56:06.676Z,1.80
2019-05-29T16:57:12.964Z,2.10
2019-05-29T16:58:57.601Z,2.40
2019-05-29T17:00:03.241Z,2.50
2019-05-29T17:01:08.213Z,2.30
2019-05-29T17:02:32.932Z,2.58
2019-05-29T17:05:02.481Z,2.37
2019-05-29T17:06:07.829Z,2.85
2019-05-29T17:07:14.115Z,2.15
2019-05-29T17:08:39.665Z,2.30
2019-05-29T17:10:04.375Z,3.00
2019-05-29T17:12:52.991Z,2.20
2019-05-29T17:13:58.557Z,2.58
2019-05-29T17:15:22.941Z,2.10
2019-05-29T17:17:08.092Z,2.05
2019-05-29T17:18:32.473Z,1.65
2019-05-29T17:19:37.490Z,2.20
2019-05-29T17:21:22.896Z,2.30
2019-05-29T17:24:14.627Z,2.02
2019-05-29T17:26:19.158Z,2.15
2019-05-29T17:27:43.303Z,2.65
2019-05-29T17:28:48.835Z,2.45
2019-05-29T17:29:53.856Z,2.08
2019-05-29T17:31:18.933Z,2.55
2019-05-29T17:32:43.999Z,1.90
2019-05-29T17:33:49.601Z,2.70
2019-05-29T17:35:14.682Z,2.20
2019-05-29T17:36:58.899Z,2.37
2019-05-29T17:40:13.479Z,2.75
2019-05-29T17:41:38.541Z,1.92
2019-05-29T17:42:43.488Z,2.42
2019-05-29T17:43:49.137Z,2.30
2019-05-29T17:44:54.055Z,2.50
2019-05-29T17:45:59.692Z,2.20
2019-05-29T17:47:04.730Z,2.60
2019-05-29T17:48:10.383Z,1.90
2019-05-29T17:49:15.710Z,2.25
2019-05-29T17:50:23.124Z,2.65
2019-05-29T17:51:28.215Z,2.45
2019-05-29T17:52:33.758Z,1.92
2019-05-29T17:53:38.800Z,2.27
2019-05-29T17:54:44.689Z,2.67
2019-05-29T17:55:49.724Z,2.22
2019-05-29T17:56:55.529Z,2.95
2019-05-29T17:58:00.531Z,3.05
2019-05-29T17:59:06.357Z,2.55
2019-05-29T18:00:12.327Z,2.87
2019-05-29T18:01:18.279Z,2.33
2019-05-29T18:02:24.598Z,2.02
2019-05-29T18:03:30.191Z,2.60
2019-05-29T18:04:35.734Z,2.50
2019-05-29T18:05:41.759Z,2.40
2019-05-29T18:06:46.623Z,2.42
2019-05-29T18:07:52.284Z,2.25
2019-05-29T18:08:57.309Z,2.52
2019-05-29T18:10:03.169Z,2.70
2019-05-29T18:11:08.220Z,2.22
2019-05-29T18:12:13.792Z,2.40
2019-05-29T18:13:19.055Z,2.65
2019-05-29T18:14:25.348Z,2.85
2019-05-29T18:15:30.451Z,2.70
2019-05-29T18:16:36.046Z,2.30
2019-05-29T18:17:44.178Z,3.15
2019-05-29T18:18:48.320Z,2.52
2019-05-29T18:19:53.254Z,2.87
2019-05-29T18:20:58.786Z,4.17
2019-05-29T18:22:03.800Z,3.40
2019-05-29T18:23:09.374Z,5.50
2019-05-29T18:24:14.403Z,2.30
2019-05-29T18:25:21.909Z,2.52
2019-05-29T18:26:42.634Z,2.62
2019-05-29T18:27:34.153Z,2.80
2019-05-29T18:28:39.058Z,2.52
2019-05-29T18:29:44.737Z,3.00
2019-05-29T18:30:50.231Z,3.17
2019-05-29T18:31:55.796Z,3.37
2019-05-29T18:33:00.735Z,2.75
2019-05-29T18:34:06.393Z,2.55
2019-05-29T18:35:11.562Z,2.80
2019-05-29T18:36:17.117Z,2.30
2019-05-29T18:37:22.103Z,2.10
2019-05-29T18:38:28.767Z,2.80
2019-05-29T18:39:34.188Z,2.37
2019-05-29T18:40:39.784Z,2.30
2019-05-29T18:41:44.727Z,2.55
2019-05-29T18:42:50.244Z,2.37
2019-05-29T18:43:55.369Z,2.62
2019-05-29T18:45:01.257Z,2.30
2019-05-29T18:46:06.293Z,3.25
2019-05-29T18:47:11.871Z,2.45
2019-05-29T18:48:16.814Z,2.62
2019-05-29T18:49:22.489Z,2.70
2019-05-29T18:50:27.766Z,2.40
2019-05-29T18:51:33.598Z,2.47
2019-05-29T18:52:38.605Z,2.70
2019-05-29T18:53:44.610Z,3.65
2019-05-29T18:54:49.890Z,2.00
2019-05-29T18:55:55.730Z,2.50
2019-05-29T18:57:14.690Z,2.70
2019-05-29T18:58:08.449Z,2.72
2019-05-29T18:59:13.572Z,2.90
2019-05-29T19:00:19.435Z,3.00
2019-05-29T19:01:25.457Z,3.95
2019-05-29T19:02:31.626Z,3.30
2019-05-29T19:03:40.284Z,3.25
2019-05-29T19:04:44.145Z,2.90
2019-05-29T19:05:49.180Z,2.75
2019-05-29T19:06:54.726Z,3.10
2019-05-29T19:07:59.664Z,2.80
2019-05-29T19:09:07.527Z,2.83
2019-05-29T19:10:13.138Z,2.85
2019-05-29T19:11:18.842Z,3.00
2019-05-29T19:12:23.798Z,2.70
2019-05-29T19:13:29.967Z,2.83
2019-05-29T19:14:34.907Z,3.50
2019-05-29T19:15:40.571Z,3.15
2019-05-29T19:16:45.586Z,2.70
2019-05-29T19:17:51.188Z,3.15
2019-05-29T19:18:56.131Z,3.10
2019-05-29T19:20:01.634Z,3.45
2019-05-29T19:21:06.729Z,3.20
2019-05-29T19:22:12.303Z,3.35
2019-05-29T19:23:17.306Z,2.62
2019-05-29T19:24:22.820Z,2.92
2019-05-29T19:25:29.033Z,2.83
2019-05-29T19:26:36.770Z,2.70
2019-05-29T19:27:42.272Z,2.80
2019-05-29T19:28:48.175Z,2.70
2019-05-29T19:29:53.365Z,3.02
2019-05-29T19:30:58.977Z,2.50
2019-05-29T19:32:04.049Z,3.10
2019-05-29T19:33:09.552Z,2.72
2019-05-29T19:34:14.584Z,3.20
2019-05-29T19:35:20.655Z,2.90
2019-05-29T19:36:25.675Z,3.30
2019-05-29T19:37:32.101Z,3.05
2019-05-29T19:38:37.100Z,2.70
2019-05-29T19:39:42.962Z,3.10
2019-05-29T19:40:48.220Z,3.10
2019-05-29T19:41:53.805Z,2.60
2019-05-29T19:42:59.023Z,2.60
2019-05-29T19:44:04.926Z,2.60
2019-05-29T19:45:10.542Z,3.42
2019-05-29T19:46:16.199Z,2.95
2019-05-29T19:47:21.395Z,3.10
2019-05-29T19:48:27.182Z,3.27
2019-05-29T19:49:32.977Z,2.67
2019-05-29T19:50:38.554Z,3.05
2019-05-29T19:51:43.591Z,3.42
2019-05-29T19:52:49.091Z,2.80
2019-05-29T19:53:54.069Z,3.40
2019-05-29T19:54:59.810Z,3.00
2019-05-29T19:56:04.927Z,2.92
2019-05-29T19:57:10.531Z,2.80
2019-05-29T19:58:15.477Z,3.08
2019-05-29T19:59:21.072Z,3.67
2019-05-29T20:00:26.158Z,2.95
2019-05-29T20:01:37.726Z,3.33
2019-05-29T20:02:38.906Z,2.77
2019-05-29T20:03:44.729Z,3.10
2019-05-29T20:04:49.758Z,2.87
2019-05-29T20:05:55.496Z,3.00
2019-05-29T20:07:00.712Z,3.20
2019-05-29T20:08:06.395Z,3.00